createdAt,value
2022-11-16T00:03:28.013Z,59.95
2022-11-16T00:08:30.611Z,60.47
2022-11-16T00:13:32.773Z,60.67
2022-11-16T00:18:34.541Z,60.63
2022-11-16T00:23:38.336Z,60.12
2022-11-16T00:28:39.782Z,60.96
2022-11-16T00:33:41.320Z,60.63
2022-11-16T00:38:42.841Z,61.14
2022-11-16T00:43:44.312Z,60.83
2022-11-16T00:48:45.776Z,61.04
2022-11-16T00:53:47.407Z,61.31
2022-11-16T00:58:49.471Z,60.54
2022-11-16T01:03:50.931Z,60.61
2022-11-16T01:08:52.503Z,60.47
2022-11-16T01:13:54.289Z,60.04
2022-11-16T01:18:55.752Z,59.62
2022-11-16T01:23:57.273Z,59.48
2022-11-16T01:28:59.356Z,60.35
2022-11-16T01:34:00.869Z,59.92
2022-11-16T01:39:02.923Z,59.44
2022-11-16T01:44:33.318Z,60.19
2022-11-16T01:49:38.704Z,59.14
2022-11-16T01:54:41.896Z,59.74
2022-11-16T01:59:43.364Z,60.78
2022-11-16T02:04:44.825Z,60.02
2022-11-16T02:10:14.112Z,59.79
2022-11-16T02:15:43.282Z,60.12
2022-11-16T02:20:59.111Z,60.48
2022-11-16T02:26:13.850Z,61.13
2022-11-16T02:31:17.495Z,61.11
2022-11-16T02:36:20.575Z,62.00
2022-11-16T02:41:22.029Z,61.10
2022-11-16T02:46:27.462Z,61.34
2022-11-16T02:51:28.931Z,61.86
2022-11-16T02:56:30.600Z,61.18
2022-11-16T03:01:35.161Z,62.63
2022-11-16T03:06:39.381Z,62.50
2022-11-16T03:12:02.446Z,61.40
2022-11-16T03:17:04.994Z,63.00
2022-11-16T03:22:11.359Z,62.53
2022-11-16T03:27:22.497Z,62.31
2022-11-16T03:32:28.873Z,61.95
2022-11-16T03:37:30.328Z,62.38
2022-11-16T03:42:31.778Z,62.14
2022-11-16T03:47:33.227Z,62.95
2022-11-16T03:52:34.678Z,62.77
2022-11-16T03:57:36.165Z,61.99
2022-11-16T04:02:37.646Z,61.82
2022-11-16T04:07:57.498Z,63.07
2022-11-16T04:13:17.392Z,63.37
2022-11-16T04:18:37.394Z,62.16
2022-11-16T04:23:57.260Z,62.70
2022-11-16T04:28:58.726Z,62.48
2022-11-16T04:34:18.976Z,61.99
2022-11-16T04:39:20.423Z,63.03
2022-11-16T04:44:27.265Z,62.52
2022-11-16T04:49:31.297Z,63.06
2022-11-16T04:54:32.763Z,63.02
2022-11-16T04:59:34.219Z,63.14
2022-11-16T05:04:36.920Z,62.85
2022-11-16T05:09:42.994Z,63.26
2022-11-16T05:14:44.776Z,63.72
2022-11-16T05:20:04.617Z,63.23
2022-11-16T05:25:06.727Z,63.96
2022-11-16T05:30:08.951Z,63.54
2022-11-16T05:35:10.428Z,64.09
2022-11-16T05:40:12.225Z,64.49
2022-11-16T05:45:18.428Z,63.96
2022-11-16T05:50:22.258Z,64.14
2022-11-16T05:55:23.724Z,63.53
2022-11-16T06:00:25.182Z,63.75
2022-11-16T06:05:26.632Z,64.15
2022-11-16T06:10:28.079Z,64.33
2022-11-16T06:15:29.537Z,64.50
2022-11-16T06:20:30.993Z,65.25
2022-11-16T06:25:32.478Z,64.35
2022-11-16T06:30:34.035Z,64.53
2022-11-16T06:35:35.492Z,64.26
2022-11-16T06:40:37.805Z,65.79
2022-11-16T06:45:39.334Z,65.38
2022-11-16T06:50:40.787Z,65.53
2022-11-16T06:55:42.236Z,66.06
2022-11-16T07:00:43.785Z,65.59
2022-11-16T07:05:45.243Z,64.56
2022-11-16T07:10:46.717Z,64.52
2022-11-16T07:15:48.185Z,64.45
2022-11-16T07:20:49.731Z,64.62
2022-11-16T07:25:51.230Z,65.17
2022-11-16T07:30:52.675Z,65.62
2022-11-16T07:35:54.133Z,65.26
2022-11-16T07:40:59.571Z,64.55
2022-11-16T07:46:45.166Z,64.65
2022-11-16T07:51:26.140Z,64.94
2022-11-16T07:56:27.624Z,65.16
2022-11-16T08:01:29.155Z,65.69
2022-11-16T08:06:31.177Z,65.66
2022-11-16T08:11:32.655Z,65.43
2022-11-16T08:16:34.115Z,65.72
2022-11-16T08:21:35.570Z,66.40
2022-11-16T08:26:37.022Z,65.60
2022-11-16T08:31:38.496Z,65.78
2022-11-16T08:36:39.956Z,66.13
2022-11-16T08:41:42.235Z,65.79
2022-11-16T08:46:43.720Z,65.80
2022-11-16T08:51:45.179Z,66.05
2022-11-16T08:56:46.649Z,65.46
2022-11-16T09:01:49.964Z,64.97
2022-11-16T09:06:52.916Z,65.81
2022-11-16T09:11:55.074Z,65.41
2022-11-16T09:16:56.580Z,65.92
2022-11-16T09:21:58.036Z,65.27
2022-11-16T09:27:01.304Z,65.90
2022-11-16T09:32:02.778Z,66.16
2022-11-16T09:37:04.261Z,66.61
2022-11-16T09:42:19.839Z,66.35
2022-11-16T09:47:23.013Z,66.84
2022-11-16T09:52:28.754Z,66.17
2022-11-16T09:57:32.665Z,66.69
2022-11-16T10:02:43.118Z,67.37
2022-11-16T10:08:05.247Z,66.91
2022-11-16T10:13:25.127Z,65.89
2022-11-16T10:18:44.719Z,67.50
2022-11-16T10:23:53.787Z,66.39
2022-11-16T10:29:01.013Z,67.14
2022-11-16T10:34:02.470Z,66.25
2022-11-16T10:39:09.679Z,65.00
2022-11-16T10:44:15.105Z,65.25
2022-11-16T10:49:35.996Z,66.29
2022-11-16T10:54:41.468Z,66.63
2022-11-16T10:59:50.049Z,66.10
2022-11-16T11:05:08.120Z,67.47
2022-11-16T11:10:28.641Z,66.45
2022-11-16T11:15:30.128Z,66.55
2022-11-16T11:20:31.609Z,66.27
2022-11-16T11:25:41.240Z,66.68
2022-11-16T11:30:54.383Z,65.15
2022-11-16T11:36:02.928Z,65.14
2022-11-16T11:41:07.188Z,65.31
2022-11-16T11:46:12.832Z,64.49
2022-11-16T11:51:21.432Z,64.40
2022-11-16T11:56:23.144Z,63.85
2022-11-16T12:01:40.969Z,63.88
2022-11-16T12:06:58.876Z,63.98
2022-11-16T12:12:14.779Z,63.93
2022-11-16T12:17:18.967Z,64.03
2022-11-16T12:22:29.159Z,63.37
2022-11-16T12:27:42.423Z,63.19
2022-11-16T12:33:11.474Z,64.41
2022-11-16T12:38:47.213Z,63.56
2022-11-16T12:44:20.675Z,63.75
2022-11-16T12:49:49.886Z,64.42
2022-11-16T12:55:24.736Z,64.29
2022-11-16T13:00:19.624Z,63.06
2022-11-16T13:05:42.049Z,62.88
2022-11-16T13:10:45.497Z,63.28
2022-11-16T13:15:47.914Z,64.13
2022-11-16T13:20:54.833Z,64.33
2022-11-16T13:26:10.186Z,64.27
2022-11-16T13:31:18.648Z,63.82
2022-11-16T13:36:40.466Z,64.21
2022-11-16T13:41:51.569Z,64.39
2022-11-16T13:46:56.967Z,63.74
2022-11-16T13:52:11.578Z,63.71
2022-11-16T13:57:26.216Z,62.82
2022-11-16T14:02:36.044Z,63.63
2022-11-16T14:07:42.685Z,63.04
2022-11-16T14:12:43.959Z,63.30
2022-11-16T14:17:59.196Z,63.43
2022-11-16T14:23:00.493Z,63.49
2022-11-16T14:28:39.199Z,63.29
2022-11-16T14:33:40.648Z,63.86
2022-11-16T14:38:42.250Z,63.89
2022-11-16T14:43:45.809Z,64.58
2022-11-16T14:48:47.367Z,64.09
2022-11-16T14:53:50.541Z,63.67
2022-11-16T14:58:58.868Z,63.46
2022-11-16T15:04:02.406Z,63.10
2022-11-16T15:09:04.398Z,63.73
2022-11-16T15:14:07.047Z,64.17
2022-11-16T15:19:11.577Z,64.50
2022-11-16T15:24:37.254Z,65.45
2022-11-16T15:29:38.715Z,64.32
2022-11-16T15:34:40.438Z,64.26
2022-11-16T15:39:41.947Z,63.91
2022-11-16T15:44:43.411Z,63.99
2022-11-16T15:49:46.065Z,64.27
2022-11-16T15:55:05.402Z,64.71
2022-11-16T16:00:20.672Z,64.61
2022-11-16T16:05:38.953Z,64.12
2022-11-16T16:10:40.409Z,64.83
2022-11-16T16:15:41.873Z,64.17
2022-11-16T16:20:47.141Z,64.89
2022-11-16T16:25:50.781Z,64.65
2022-11-16T16:30:52.387Z,66.49
2022-11-16T16:35:53.843Z,66.05
2022-11-16T16:41:00.408Z,65.97
2022-11-16T16:46:02.324Z,66.20
2022-11-16T16:51:03.831Z,66.93
2022-11-16T16:56:05.683Z,66.21
2022-11-16T17:01:07.189Z,68.25
2022-11-16T17:06:08.675Z,65.57
2022-11-16T17:11:12.259Z,65.49
2022-11-16T17:16:13.719Z,64.14
2022-11-16T17:21:15.182Z,64.87
2022-11-16T17:26:16.792Z,64.15
2022-11-16T17:31:18.273Z,64.12
2022-11-16T17:36:19.817Z,63.68
2022-11-16T17:41:24.100Z,63.68
2022-11-16T17:46:26.122Z,62.95
2022-11-16T17:51:29.832Z,63.96
2022-11-16T17:56:31.312Z,63.63
2022-11-16T18:01:33.173Z,63.76
2022-11-16T18:06:35.568Z,63.32
2022-11-16T18:11:39.377Z,62.46
2022-11-16T18:16:43.184Z,62.31
2022-11-16T18:21:44.909Z,62.00
2022-11-16T18:26:46.379Z,62.16
2022-11-16T18:31:47.939Z,61.70
2022-11-16T18:36:50.758Z,61.83
2022-11-16T18:41:55.102Z,61.68
2022-11-16T18:46:56.905Z,62.00
2022-11-16T18:51:58.372Z,61.61
2022-11-16T18:56:59.875Z,61.38
2022-11-16T19:02:01.340Z,62.97
2022-11-16T19:07:02.869Z,62.44
2022-11-16T19:12:04.371Z,62.26
2022-11-16T19:17:05.838Z,61.79
2022-11-16T19:22:07.294Z,62.41
2022-11-16T19:27:08.774Z,62.74
2022-11-16T19:32:10.242Z,63.83
2022-11-16T19:37:11.913Z,64.07
2022-11-16T19:42:13.370Z,62.98
2022-11-16T19:47:14.825Z,62.76
2022-11-16T19:52:16.390Z,62.35
2022-11-16T19:57:20.470Z,61.58
2022-11-16T20:02:21.940Z,62.18
2022-11-16T20:07:23.526Z,62.07
2022-11-16T20:12:25.035Z,63.53
2022-11-16T20:17:26.520Z,62.19
2022-11-16T20:22:28.015Z,61.69
2022-11-16T20:27:29.499Z,62.28
2022-11-16T20:32:32.015Z,62.49
2022-11-16T20:37:33.482Z,62.51
2022-11-16T20:42:34.964Z,62.64
2022-11-16T20:47:36.424Z,63.37
2022-11-16T20:52:42.384Z,62.56
2022-11-16T20:57:45.131Z,62.36
2022-11-16T21:02:46.611Z,62.43
2022-11-16T21:07:48.162Z,62.25
2022-11-16T21:13:07.989Z,62.25
2022-11-16T21:18:09.468Z,62.76
2022-11-16T21:23:10.936Z,62.12
2022-11-16T21:28:12.396Z,62.22
2022-11-16T21:33:13.855Z,62.80
2022-11-16T21:38:15.310Z,63.00
2022-11-16T21:43:16.909Z,63.01
2022-11-16T21:48:18.371Z,61.89
2022-11-16T21:53:19.874Z,61.91
2022-11-16T21:58:21.368Z,62.86
2022-11-16T22:03:25.111Z,62.30
2022-11-16T22:08:26.568Z,62.29
2022-11-16T22:13:28.034Z,62.08
2022-11-16T22:18:32.792Z,62.21
2022-11-16T22:23:34.392Z,62.29
2022-11-16T22:28:36.303Z,61.62
2022-11-16T22:33:38.168Z,61.96
2022-11-16T22:38:39.785Z,62.59
2022-11-16T22:43:41.242Z,62.48
2022-11-16T22:48:43.623Z,62.55
2022-11-16T22:53:45.143Z,62.33
2022-11-16T22:58:46.634Z,63.10
2022-11-16T23:03:48.307Z,62.47
2022-11-16T23:08:49.837Z,61.54
2022-11-16T23:14:10.642Z,61.64
2022-11-16T23:19:32.524Z,63.18
2022-11-16T23:24:52.219Z,60.84
2022-11-16T23:29:53.683Z,61.54
2022-11-16T23:34:55.150Z,61.23
2022-11-16T23:39:56.623Z,60.28
2022-11-16T23:44:58.087Z,61.72
2022-11-16T23:49:59.559Z,61.61
2022-11-16T23:55:01.021Z,62.37
